Time;durP1;ratioP1;P1;durP2;ratioP2;P2;SDS_P1;SDS_P2;PMS_P1;PMS_P2;Temp;Humidity;BMP_temperature;BMP_pressure;BME280_temperature;BME280_humidity;BME280_pressure;Samples;Min_cycle;Max_cycle;Signal;HPM_P1;HPM_P2
2022/05/16 00:01:05;;;;;;;8.90;3.47;;;12.90;99.90;;;;;;6339022;22;20027;-70
2022/05/16 00:03:31;;;;;;;9.57;4.40;;;12.70;99.90;;;;;;6310595;22;20015;-71
2022/05/16 00:05:57;;;;;;;7.93;3.22;;;12.70;99.90;;;;;;6285258;22;20349;-71
2022/05/16 00:08:23;;;;;;;12.07;3.90;;;12.70;99.90;;;;;;6339797;22;20015;-70
2022/05/16 00:10:49;;;;;;;10.07;3.53;;;12.70;99.90;;;;;;6311563;22;20385;-71
2022/05/16 00:13:15;;;;;;;10.02;3.97;;;12.70;99.90;;;;;;6311681;22;20019;-69
2022/05/16 00:15:41;;;;;;;12.18;3.80;;;12.70;99.90;;;;;;6311749;22;20436;-71
2022/05/16 00:18:06;;;;;;;8.18;3.40;;;12.70;99.90;;;;;;6310854;22;20080;-70
2022/05/16 00:20:33;;;;;;;9.98;3.60;;;12.60;99.90;;;;;;6311469;22;20014;-70
2022/05/16 00:22:59;;;;;;;10.50;3.40;;;12.70;99.90;;;;;;6311780;22;20050;-71
2022/05/16 00:25:24;;;;;;;10.13;3.13;;;12.60;99.90;;;;;;6311621;22;20318;-71
2022/05/16 00:27:50;;;;;;;10.25;3.35;;;12.60;99.90;;;;;;6339377;22;20064;-70
2022/05/16 00:30:18;;;;;;;7.53;3.15;;;12.70;99.90;;;;;;6339084;22;20048;-71
2022/05/16 00:32:48;;;;;;;8.65;3.00;;;12.70;99.90;;;;;;6338861;22;20015;-71
2022/05/16 00:35:14;;;;;;;8.38;2.97;;;12.70;99.90;;;;;;6338765;22;20403;-70
2022/05/16 00:37:40;;;;;;;8.55;3.00;;;12.70;99.90;;;;;;6311105;22;20076;-71
2022/05/16 00:40:07;;;;;;;8.38;2.85;;;12.60;99.90;;;;;;6339433;22;20015;-71
2022/05/16 00:42:33;;;;;;;7.85;2.85;;;12.70;99.90;;;;;;6311288;22;20404;-71
2022/05/16 00:45:01;;;;;;;9.43;2.70;;;12.70;99.90;;;;;;6286047;22;20042;-71
2022/05/16 00:47:27;;;;;;;9.48;3.10;;;12.70;99.90;;;;;;6311267;22;20022;-71
2022/05/16 00:49:54;;;;;;;8.10;3.00;;;12.60;99.90;;;;;;6284701;22;20021;-70
2022/05/16 00:52:29;;;;;;;8.68;3.20;;;12.60;99.90;;;;;;6338681;22;20064;-70
2022/05/16 00:54:56;;;;;;;7.60;2.40;;;12.70;99.90;;;;;;6285487;22;20044;-70
2022/05/16 00:57:34;;;;;;;8.77;2.60;;;12.90;99.90;;;;;;6339304;22;20015;-70
2022/05/16 01:00:13;;;;;;;6.20;2.50;;;12.60;99.90;;;;;;6339086;22;20074;-72
2022/05/16 01:05:28;;;;;;;8.77;2.60;;;12.80;99.90;;;;;;6310299;22;20029;-71
2022/05/16 01:07:58;;;;;;;7.97;2.28;;;12.70;99.90;;;;;;6311187;22;20090;-71
2022/05/16 01:10:23;;;;;;;8.35;2.47;;;12.60;99.90;;;;;;6311434;22;20014;-70
2022/05/16 01:12:52;;;;;;;6.57;2.40;;;12.60;99.90;;;;;;6338883;22;20377;-70
2022/05/16 01:15:23;;;;;;;6.28;2.35;;;12.50;99.90;;;;;;6311072;22;20103;-71
2022/05/16 01:17:49;;;;;;;8.55;2.13;;;12.70;99.90;;;;;;6338913;22;20023;-71
2022/05/16 01:20:16;;;;;;;9.95;2.28;;;12.60;99.90;;;;;;6337802;22;20017;-70
2022/05/16 01:22:44;;;;;;;7.55;2.10;;;12.60;99.90;;;;;;6338369;22;20037;-71
2022/05/16 01:25:14;;;;;;;5.72;2.00;;;12.60;99.90;;;;;;6338676;22;20094;-71
2022/05/16 01:27:55;;;;;;;6.95;1.95;;;12.70;99.90;;;;;;6338988;22;20022;-71
2022/05/16 01:30:28;;;;;;;7.03;2.22;;;12.60;99.90;;;;;;6338738;22;20309;-69
2022/05/16 01:32:54;;;;;;;5.82;2.00;;;12.60;99.90;;;;;;6338755;22;20070;-69
2022/05/16 01:35:25;;;;;;;6.10;2.28;;;12.70;99.90;;;;;;6338302;22;20015;-71
2022/05/16 01:40:36;;;;;;;9.65;2.08;;;12.70;99.90;;;;;;6310667;22;20022;-71
2022/05/16 01:43:03;;;;;;;6.20;1.83;;;12.60;99.90;;;;;;6338589;22;20371;-71
2022/05/16 01:45:29;;;;;;;8.40;2.20;;;12.60;99.90;;;;;;6338408;22;20070;-71
2022/05/16 01:47:54;;;;;;;8.77;2.00;;;12.80;99.90;;;;;;6338779;22;20070;-70
2022/05/16 01:50:20;;;;;;;7.43;2.00;;;12.80;99.90;;;;;;6310784;22;20024;-70
2022/05/16 01:52:46;;;;;;;7.72;1.98;;;12.60;99.90;;;;;;6338212;22;20014;-71
2022/05/16 01:55:12;;;;;;;5.55;1.67;;;12.60;99.90;;;;;;6338680;22;20019;-71
2022/05/16 01:57:39;;;;;;;5.95;1.90;;;12.60;99.90;;;;;;6338469;22;20025;-71
2022/05/16 02:00:09;;;;;;;5.95;2.00;;;12.50;99.90;;;;;;6338261;22;20023;-71
2022/05/16 02:02:35;;;;;;;4.30;1.65;;;12.60;99.90;;;;;;6337432;22;20041;-69
2022/05/16 02:05:01;;;;;;;7.30;1.90;;;12.50;99.90;;;;;;6338617;22;20026;-71
2022/05/16 02:07:27;;;;;;;7.45;2.20;;;12.50;99.90;;;;;;6310316;22;20341;-71
2022/05/16 02:09:53;;;;;;;5.03;1.75;;;12.50;99.90;;;;;;6338740;22;20011;-71
2022/05/16 02:12:19;;;;;;;3.92;1.50;;;12.50;99.90;;;;;;6310023;22;20478;-70
2022/05/16 02:14:45;;;;;;;4.43;1.77;;;12.60;99.90;;;;;;6338117;22;20015;-71
2022/05/16 02:17:11;;;;;;;6.72;1.60;;;12.50;99.90;;;;;;6338712;22;20034;-71
2022/05/16 02:19:36;;;;;;;4.43;1.60;;;12.50;99.90;;;;;;6338374;22;20022;-71
2022/05/16 02:24:46;;;;;;;4.88;1.80;;;12.40;99.90;;;;;;6337856;22;20046;-71
2022/05/16 02:27:18;;;;;;;6.20;1.60;;;12.40;99.90;;;;;;6337802;22;20023;-70
2022/05/16 02:29:45;;;;;;;4.50;1.83;;;12.40;99.90;;;;;;6337977;22;20101;-71
2022/05/16 02:32:12;;;;;;;6.10;1.90;;;12.40;99.90;;;;;;6310492;22;20015;-71
2022/05/16 02:34:38;;;;;;;6.03;2.17;;;12.30;99.90;;;;;;6337997;22;20465;-71
2022/05/16 02:37:05;;;;;;;4.85;1.50;;;12.30;99.90;;;;;;6337652;22;20011;-71
2022/05/16 02:39:31;;;;;;;5.53;1.75;;;12.30;99.90;;;;;;6337597;22;20341;-72
2022/05/16 02:41:57;;;;;;;5.70;1.77;;;12.30;99.90;;;;;;6337919;22;20018;-71
2022/05/16 02:44:23;;;;;;;4.28;1.63;;;12.30;99.90;;;;;;6337627;22;20067;-71
2022/05/16 02:46:49;;;;;;;4.60;1.70;;;12.30;99.90;;;;;;6309041;22;20394;-70
2022/05/16 02:49:14;;;;;;;6.60;1.52;;;12.30;99.90;;;;;;6337953;22;20007;-71
2022/05/16 02:51:40;;;;;;;4.15;1.50;;;12.20;99.90;;;;;;6337948;22;20462;-71
2022/05/16 02:54:06;;;;;;;5.35;1.90;;;12.20;99.90;;;;;;6309514;22;20333;-70
2022/05/16 02:56:32;;;;;;;7.05;1.80;;;12.20;99.90;;;;;;6337366;22;20086;-72
2022/05/16 02:58:58;;;;;;;10.60;2.22;;;12.30;99.90;;;;;;6337579;22;20091;-71
2022/05/16 03:01:25;;;;;;;6.50;2.25;;;12.10;99.90;;;;;;6337305;22;20011;-71
2022/05/16 03:03:50;;;;;;;4.28;1.50;;;12.20;99.90;;;;;;6283938;22;20023;-70
2022/05/16 03:06:16;;;;;;;5.32;1.73;;;12.10;99.90;;;;;;6337509;22;20026;-71
2022/05/16 03:08:42;;;;;;;6.65;1.85;;;12.10;99.90;;;;;;6337819;22;20007;-70
2022/05/16 03:11:08;;;;;;;5.32;1.60;;;12.10;99.90;;;;;;6336825;22;20352;-71
2022/05/16 03:13:34;;;;;;;6.25;1.52;;;12.00;99.90;;;;;;6337659;22;20015;-72
2022/05/16 03:15:59;;;;;;;5.13;1.90;;;12.10;99.90;;;;;;6311762;22;20367;-70
2022/05/16 03:18:28;;;;;;;8.52;2.30;;;12.00;99.90;;;;;;6339451;22;20053;-70
2022/05/16 03:20:53;;;;;;;6.50;1.90;;;12.00;99.90;;;;;;6339263;22;20030;-70
2022/05/16 03:23:19;;;;;;;7.95;2.03;;;12.00;99.90;;;;;;6311484;22;20019;-71
2022/05/16 03:25:45;;;;;;;6.88;1.92;;;12.00;99.90;;;;;;6311208;22;20145;-70
2022/05/16 03:28:11;;;;;;;7.88;2.03;;;11.90;99.90;;;;;;6311350;22;20448;-70
2022/05/16 03:30:48;;;;;;;4.30;1.60;;;12.00;99.90;;;;;;6310104;22;20023;-70
2022/05/16 03:33:14;;;;;;;5.30;1.58;;;12.00;99.90;;;;;;6308300;22;20034;-71
2022/05/16 03:35:41;;;;;;;4.75;1.70;;;11.90;99.90;;;;;;6306631;22;20086;-72
2022/05/16 03:38:06;;;;;;;5.93;1.90;;;11.90;99.90;;;;;;6306747;22;20019;-71
2022/05/16 03:40:45;;;;;;;6.90;2.00;;;11.90;99.90;;;;;;6306602;22;20022;-70
2022/05/16 03:43:13;;;;;;;6.65;1.70;;;11.90;99.90;;;;;;6280429;22;20015;-71
2022/05/16 03:45:40;;;;;;;9.18;2.15;;;11.90;99.90;;;;;;6306583;22;20030;-77
2022/05/16 03:48:06;;;;;;;6.57;1.95;;;11.90;99.90;;;;;;6308494;22;20380;-74
2022/05/16 03:50:32;;;;;;;5.35;2.00;;;11.90;99.90;;;;;;6308277;22;20087;-70
2022/05/16 03:52:59;;;;;;;6.63;1.80;;;11.90;99.90;;;;;;6308570;22;20090;-71
2022/05/16 03:55:28;;;;;;;6.82;1.80;;;11.90;99.90;;;;;;6308435;22;20019;-73
2022/05/16 03:57:54;;;;;;;7.55;1.98;;;11.90;99.90;;;;;;6307543;22;20441;-72
2022/05/16 04:00:21;;;;;;;6.07;1.80;;;11.90;99.90;;;;;;6307842;22;20440;-71
2022/05/16 04:02:47;;;;;;;3.85;1.50;;;11.90;99.90;;;;;;6308259;22;20087;-72
2022/05/16 04:05:16;;;;;;;6.10;1.80;;;11.90;99.90;;;;;;6306278;22;20050;-72
2022/05/16 04:07:42;;;;;;;7.60;2.40;;;11.90;99.90;;;;;;6332382;22;20026;-72
2022/05/16 04:10:08;;;;;;;6.55;1.98;;;11.90;99.90;;;;;;6306417;22;20345;-73
2022/05/16 04:12:34;;;;;;;9.68;1.98;;;12.00;99.90;;;;;;6305804;22;20020;-72
2022/05/16 04:15:00;;;;;;;6.32;1.95;;;12.00;99.90;;;;;;6307900;22;20015;-71
2022/05/16 04:17:26;;;;;;;4.22;1.80;;;12.00;99.90;;;;;;6305453;22;20146;-73
2022/05/16 04:19:52;;;;;;;5.80;1.90;;;12.00;99.90;;;;;;6305784;22;20022;-72
2022/05/16 04:22:18;;;;;;;8.75;2.10;;;12.10;99.90;;;;;;6307711;22;20007;-70
2022/05/16 04:24:44;;;;;;;7.93;1.95;;;12.10;99.90;;;;;;6305671;22;20049;-74
2022/05/16 04:27:10;;;;;;;7.30;2.15;;;12.20;99.90;;;;;;6305366;22;20030;-72
2022/05/16 04:29:36;;;;;;;5.90;2.00;;;12.30;99.90;;;;;;6304883;22;20011;-70
2022/05/16 04:32:01;;;;;;;4.57;1.85;;;12.30;99.90;;;;;;6307414;22;20020;-71
2022/05/16 04:34:27;;;;;;;8.32;2.10;;;12.40;99.90;;;;;;6308010;22;20046;-71
2022/05/16 04:36:53;;;;;;;7.30;2.10;;;12.40;99.90;;;;;;6307491;22;20019;-71
2022/05/16 04:39:18;;;;;;;6.53;2.17;;;12.50;99.90;;;;;;6305978;22;20338;-71
2022/05/16 04:44:28;;;;;;;7.63;2.00;;;12.60;99.90;;;;;;6307185;22;20024;-71
2022/05/16 04:46:53;;;;;;;5.80;2.03;;;12.70;99.90;;;;;;6307627;22;20015;-71
2022/05/16 04:49:19;;;;;;;9.27;2.45;;;12.80;99.90;;;;;;6305815;22;20019;-71
2022/05/16 04:51:45;;;;;;;5.53;2.03;;;12.80;99.90;;;;;;6305665;22;20344;-71
2022/05/16 04:54:10;;;;;;;7.47;2.33;;;12.90;99.90;;;;;;6307690;22;20047;-68
2022/05/16 04:56:36;;;;;;;7.38;2.20;;;12.90;99.90;;;;;;6307334;22;20454;-71
2022/05/16 04:59:02;;;;;;;6.82;2.30;;;12.90;99.90;;;;;;6305625;22;20012;-72
2022/05/16 05:01:28;;;;;;;6.78;2.30;;;12.80;99.90;;;;;;6304548;22;20026;-69
2022/05/16 05:03:53;;;;;;;8.77;2.40;;;12.90;99.90;;;;;;6307399;22;20016;-70
2022/05/16 05:06:20;;;;;;;8.52;2.63;;;12.90;99.90;;;;;;6307724;22;20015;-70
2022/05/16 05:08:46;;;;;;;7.50;2.35;;;12.90;99.90;;;;;;6307266;22;20445;-71
2022/05/16 05:16:40;;;;;;;8.38;2.25;;;12.90;99.90;;;;;;6304923;22;20102;-68
2022/05/16 05:19:06;;;;;;;7.20;2.55;;;12.80;99.90;;;;;;6278747;22;20149;-67
2022/05/16 05:21:32;;;;;;;4.55;1.75;;;12.80;99.90;;;;;;6307565;22;20088;-72
2022/05/16 05:23:57;;;;;;;8.38;2.42;;;12.80;99.90;;;;;;6307208;22;20353;-71
2022/05/16 05:29:23;;;;;;;6.80;2.75;;;12.80;99.90;;;;;;6305233;22;20025;-70
2022/05/16 05:31:51;;;;;;;12.30;2.47;;;12.80;99.90;;;;;;6304620;22;20042;-71
2022/05/16 05:34:16;;;;;;;8.95;2.55;;;12.80;99.90;;;;;;6305565;22;20051;-70
2022/05/16 05:36:43;;;;;;;8.15;2.40;;;12.80;99.90;;;;;;6305927;22;20302;-70
2022/05/16 05:39:13;;;;;;;8.00;2.78;;;12.80;99.90;;;;;;6305469;22;20021;-71
2022/05/16 05:41:40;;;;;;;7.20;2.22;;;12.90;99.90;;;;;;6305782;22;20018;-72
2022/05/16 05:44:05;;;;;;;6.95;2.22;;;12.90;99.90;;;;;;6305765;22;20322;-72
2022/05/16 05:46:39;;;;;;;9.95;2.60;;;13.00;99.90;;;;;;6305649;22;20021;-72
2022/05/16 05:49:05;;;;;;;7.28;2.60;;;13.10;99.90;;;;;;6305462;22;20088;-72
2022/05/16 05:51:32;;;;;;;6.93;2.30;;;13.20;99.90;;;;;;6305570;22;20015;-70
2022/05/16 05:53:58;;;;;;;7.22;2.20;;;13.50;99.90;;;;;;6305578;22;20333;-72
2022/05/16 05:56:24;;;;;;;8.82;2.40;;;13.40;99.90;;;;;;6306931;22;20015;-71
2022/05/16 05:58:50;;;;;;;8.75;2.25;;;13.60;99.90;;;;;;6279250;22;20019;-70
2022/05/16 06:01:15;;;;;;;6.00;2.25;;;13.60;99.90;;;;;;6304916;22;20377;-70
2022/05/16 06:03:41;;;;;;;6.93;2.30;;;13.60;99.90;;;;;;6304667;22;20053;-70
2022/05/16 06:06:07;;;;;;;7.57;2.50;;;13.80;99.90;;;;;;6304195;22;20399;-70
2022/05/16 06:08:35;;;;;;;7.88;2.80;;;13.70;99.90;;;;;;6305399;22;20491;-70
2022/05/16 06:11:01;;;;;;;8.00;2.78;;;13.70;99.90;;;;;;6305648;22;20015;-70
2022/05/16 06:13:28;;;;;;;5.97;2.28;;;14.20;99.90;;;;;;6304413;22;20038;-70
2022/05/16 06:15:54;;;;;;;7.97;2.40;;;14.10;99.90;;;;;;6305268;22;20011;-69
2022/05/16 06:18:20;;;;;;;8.20;2.53;;;13.90;99.90;;;;;;6278779;22;20452;-70
2022/05/16 06:20:45;;;;;;;9.50;2.30;;;13.90;99.90;;;;;;6305076;22;20057;-69
2022/05/16 06:23:11;;;;;;;7.82;2.60;;;14.00;99.90;;;;;;6304973;22;20340;-70
2022/05/16 06:25:39;;;;;;;10.02;2.65;;;14.20;99.90;;;;;;6304733;22;20022;-71
2022/05/16 06:28:17;;;;;;;6.72;2.40;;;14.20;99.90;;;;;;6271150;22;20476;-70
2022/05/16 06:30:45;;;;;;;9.70;2.80;;;14.30;99.90;;;;;;6298632;22;20026;-69
2022/05/16 06:33:18;;;;;;;8.05;2.60;;;14.40;99.90;;;;;;6304204;22;20019;-69
2022/05/16 06:35:44;;;;;;;9.25;2.42;;;14.50;99.90;;;;;;6302600;22;20106;-75
2022/05/16 06:38:23;;;;;;;11.35;3.42;;;14.60;99.90;;;;;;6303572;22;20015;-68
2022/05/16 06:40:49;;;;;;;8.10;2.65;;;14.70;99.90;;;;;;6303685;22;20019;-69
2022/05/16 06:43:19;;;;;;;9.15;2.72;;;14.70;99.90;;;;;;6304070;22;20011;-71
2022/05/16 06:45:45;;;;;;;6.65;2.40;;;14.90;99.90;;;;;;6302771;22;20158;-69
2022/05/16 06:48:12;;;;;;;8.15;2.30;;;15.00;99.90;;;;;;6276630;22;20116;-70
2022/05/16 06:50:39;;;;;;;5.75;1.83;;;15.30;99.90;;;;;;6301822;22;20487;-70
2022/05/16 06:53:06;;;;;;;8.10;2.45;;;15.10;99.90;;;;;;6302553;22;20051;-70
2022/05/16 06:55:32;;;;;;;9.07;2.58;;;15.20;99.90;;;;;;6302108;22;20015;-70
2022/05/16 06:57:59;;;;;;;9.98;2.30;;;15.10;99.90;;;;;;6276644;22;20437;-70
2022/05/16 07:00:26;;;;;;;6.85;2.05;;;15.40;99.90;;;;;;6302022;22;20086;-71
2022/05/16 07:02:52;;;;;;;6.18;2.38;;;15.30;99.90;;;;;;6277001;22;20031;-71
2022/05/16 07:05:18;;;;;;;10.15;2.42;;;15.50;99.90;;;;;;6276392;22;20027;-70
2022/05/16 07:07:44;;;;;;;9.13;2.40;;;15.60;99.90;;;;;;6302280;22;20012;-72
2022/05/16 07:10:10;;;;;;;11.50;2.67;;;15.70;99.90;;;;;;6304033;22;20015;-74
2022/05/16 07:12:35;;;;;;;6.35;2.08;;;15.90;99.90;;;;;;6276032;22;20015;-67
2022/05/16 07:15:01;;;;;;;9.93;2.28;;;16.10;99.90;;;;;;6304489;22;20011;-71
2022/05/16 07:17:27;;;;;;;5.25;2.25;;;16.20;99.90;;;;;;6304223;22;20494;-71
2022/05/16 07:19:53;;;;;;;7.43;2.25;;;16.40;99.90;;;;;;6302286;22;20019;-70
2022/05/16 07:22:23;;;;;;;8.75;2.38;;;16.60;99.90;;;;;;6302108;22;20018;-69
2022/05/16 07:24:51;;;;;;;7.45;2.22;;;16.80;99.90;;;;;;6302588;22;20015;-73
2022/05/16 07:30:10;;;;;;;9.18;2.65;;;17.50;99.90;;;;;;6294737;22;20049;-73
2022/05/16 07:32:41;;;;;;;10.30;2.45;;;17.30;99.90;;;;;;6272519;22;20023;-71
2022/05/16 07:35:14;;;;;;;9.90;2.65;;;17.50;99.90;;;;;;6274307;22;20023;-72
2022/05/16 07:37:40;;;;;;;5.78;1.98;;;17.70;99.90;;;;;;6323273;22;20182;-69
2022/05/16 07:40:08;;;;;;;8.60;2.45;;;17.80;99.90;;;;;;6298976;22;20023;-70
2022/05/16 07:42:34;;;;;;;7.72;2.40;;;18.00;99.90;;;;;;6299024;22;20479;-72
2022/05/16 07:45:01;;;;;;;6.97;2.47;;;18.20;99.90;;;;;;6300850;22;20023;-71
2022/05/16 07:47:30;;;;;;;7.45;2.15;;;18.30;99.90;;;;;;6301039;22;20027;-71
2022/05/16 07:49:57;;;;;;;9.40;2.53;;;18.50;99.90;;;;;;6299157;22;20018;-71
2022/05/16 07:52:23;;;;;;;5.50;2.25;;;18.60;99.90;;;;;;6297273;22;20024;-69
2022/05/16 07:54:49;;;;;;;8.43;2.88;;;18.60;99.90;;;;;;6301346;22;20235;-72
2022/05/16 07:57:14;;;;;;;8.60;2.33;;;18.70;99.90;;;;;;6299733;22;20062;-69
2022/05/16 07:59:43;;;;;;;9.88;2.60;;;18.90;99.90;;;;;;6292459;22;20012;-69
2022/05/16 08:02:09;;;;;;;14.02;2.70;;;19.00;99.90;;;;;;6301098;22;20015;-72
2022/05/16 08:04:35;;;;;;;9.32;2.40;;;19.20;99.90;;;;;;6302462;22;20054;-72
2022/05/16 08:07:04;;;;;;;7.55;2.28;;;19.20;99.90;;;;;;6301349;22;20030;-73
2022/05/16 08:12:25;;;;;;;8.82;2.70;;;19.60;99.90;;;;;;6301851;22;20024;-72
2022/05/16 08:14:51;;;;;;;11.02;2.53;;;19.80;99.90;;;;;;6302927;22;20026;-74
2022/05/16 08:17:17;;;;;;;11.05;2.65;;;19.90;99.90;;;;;;6301989;22;20020;-74
2022/05/16 08:19:42;;;;;;;11.75;2.58;;;20.10;99.90;;;;;;6302335;22;20019;-73
2022/05/16 08:22:10;;;;;;;9.30;2.28;;;20.30;99.90;;;;;;6300386;22;20012;-73
2022/05/16 08:24:36;;;;;;;9.45;2.30;;;20.60;99.90;;;;;;6302588;22;20046;-73
2022/05/16 08:27:02;;;;;;;9.40;2.25;;;20.40;99.90;;;;;;6303221;22;20034;-74
2022/05/16 08:29:29;;;;;;;13.15;2.80;;;20.40;99.90;;;;;;6302940;22;20022;-74
2022/05/16 08:31:55;;;;;;;8.52;2.45;;;20.50;99.90;;;;;;6299695;22;20420;-73
2022/05/16 08:34:21;;;;;;;10.35;2.40;;;20.50;99.90;;;;;;6302809;22;20023;-73
2022/05/16 08:42:18;;;;;;;8.55;2.38;;;20.70;99.80;;;;;;6300813;22;20452;-74
2022/05/16 08:45:00;;;;;;;12.40;2.35;;;20.70;99.60;;;;;;6302550;22;20011;-74
2022/05/16 08:47:32;;;;;;;;;;;20.90;97.60;;;;;;6303458;22;20056;-74
2022/05/16 08:50:04;;;;;;;7.57;2.40;;;21.10;97.80;;;;;;6301494;22;19911;-74
2022/05/16 08:52:50;;;;;;;8.15;2.38;;;21.20;98.60;;;;;;6299656;22;20029;-75
2022/05/16 08:55:35;;;;;;;6.45;2.35;;;21.40;96.70;;;;;;6301538;22;20147;-72
2022/05/16 08:58:11;;;;;;;8.68;2.75;;;21.50;97.30;;;;;;6301787;22;20044;-76
2022/05/16 09:00:53;;;;;;;12.30;2.50;;;21.50;95.90;;;;;;6300914;22;20015;-73
2022/05/16 09:03:26;;;;;;;11.65;2.50;;;21.50;94.20;;;;;;6300735;22;20011;-78
2022/05/16 09:06:13;;;;;;;9.93;2.55;;;21.70;95.20;;;;;;6300843;22;20047;-75
2022/05/16 09:08:56;;;;;;;9.85;2.38;;;21.90;92.90;;;;;;6277040;22;20020;-76
2022/05/16 09:11:35;;;;;;;9.73;3.03;;;22.10;93.00;;;;;;6303325;22;20038;-74
2022/05/16 09:14:11;;;;;;;8.02;2.90;;;22.30;93.60;;;;;;6277046;22;20019;-76
2022/05/16 09:16:51;;;;;;;10.13;2.65;;;22.50;92.80;;;;;;6302768;22;20575;-75
2022/05/16 09:19:32;;;;;;;10.25;2.75;;;22.90;91.40;;;;;;6302697;22;20023;-74
2022/05/16 09:22:08;;;;;;;7.68;2.22;;;23.10;89.70;;;;;;6303084;22;20022;-76
2022/05/16 09:24:41;;;;;;;12.20;3.83;;;23.20;87.40;;;;;;6303791;22;20405;-74
2022/05/16 09:30:22;;;;;;;11.82;2.38;;;23.10;84.50;;;;;;6208596;23;20032;-77
2022/05/16 09:32:53;;;;;;;10.57;2.70;;;23.10;87.40;;;;;;6207787;23;20055;-73
2022/05/16 09:35:19;;;;;;;11.02;2.80;;;23.20;84.90;;;;;;6209890;23;20059;-74
2022/05/16 09:37:47;;;;;;;11.55;2.65;;;23.30;84.90;;;;;;6184658;23;20024;-74
2022/05/16 09:40:15;;;;;;;9.85;2.50;;;23.60;82.90;;;;;;6208722;22;20075;-78
2022/05/16 09:42:41;;;;;;;9.73;2.35;;;23.80;82.00;;;;;;6207725;23;20087;-77
2022/05/16 09:45:23;;;;;;;8.88;2.53;;;24.10;80.50;;;;;;6208334;23;20020;-81
2022/05/16 09:47:50;;;;;;;7.43;2.38;;;24.40;80.20;;;;;;6209659;23;20024;-78
2022/05/16 09:50:23;;;;;;;8.65;2.47;;;24.60;77.80;;;;;;6183670;23;20105;-81
2022/05/16 09:53:14;;;;;;;9.10;2.53;;;24.90;75.50;;;;;;6181652;23;20028;-75
2022/05/16 09:55:54;;;;;;;9.25;2.10;;;25.10;72.10;;;;;;6119732;23;20064;-73
2022/05/16 09:58:26;;;;;;;10.93;2.72;;;25.40;73.90;;;;;;6119179;23;20022;-81
2022/05/16 10:00:54;;;;;;;;;;;25.50;70.70;;;;;;6120320;23;20014;-77
2022/05/16 10:03:22;;;;;;;8.75;2.53;;;25.60;64.60;;;;;;6118436;23;20347;-83
2022/05/16 10:05:51;;;;;;;8.70;2.15;;;25.60;70.00;;;;;;6123489;23;20022;-81
2022/05/16 10:08:46;;;;;;;9.43;2.30;;;25.50;69.70;;;;;;6211404;23;20051;-86
2022/05/16 10:11:18;;;;;;;6.20;2.30;;;25.60;69.20;;;;;;6183029;23;20060;-80
2022/05/16 10:13:44;;;;;;;;;;;25.50;70.20;;;;;;6207394;23;20071;-74
2022/05/16 10:16:11;;;;;;;8.70;2.70;;;25.40;68.80;;;;;;6206883;23;19930;-72
2022/05/16 10:18:45;;;;;;;8.98;2.80;;;25.50;69.20;;;;;;6209610;23;20128;-77
2022/05/16 10:21:21;;;;;;;12.55;2.40;;;25.60;70.30;;;;;;6208372;23;20071;-76
2022/05/16 10:23:47;;;;;;;9.02;2.47;;;25.70;68.10;;;;;;6182105;23;20028;-74
2022/05/16 10:26:20;;;;;;;8.65;2.38;;;25.80;66.70;;;;;;6183478;23;20020;-73
2022/05/16 10:28:51;;;;;;;8.85;2.30;;;25.80;65.10;;;;;;6207869;23;20024;-79
2022/05/16 10:34:18;;;;;;;13.93;3.17;;;25.80;65.70;;;;;;6301942;22;20409;-76
2022/05/16 10:36:49;;;;;;;9.82;2.70;;;25.90;66.20;;;;;;6302623;22;20093;-75
2022/05/16 10:39:22;;;;;;;7.45;2.30;;;26.00;64.90;;;;;;6328477;22;20157;-73
2022/05/16 10:42:03;;;;;;;8.13;2.40;;;26.20;63.50;;;;;;6301111;22;20019;-74
2022/05/16 10:45:24;;;;;;;8.27;2.70;;;26.30;64.10;;;;;;6302726;22;20011;-74
2022/05/16 10:48:00;;;;;;;9.55;2.47;;;26.10;60.60;;;;;;6208882;23;20052;-71
2022/05/16 10:50:38;;;;;;;9.13;2.67;;;25.80;60.60;;;;;;6208078;23;20028;-73
2022/05/16 10:53:09;;;;;;;7.28;2.63;;;25.60;60.60;;;;;;6208107;23;20020;-71
2022/05/16 10:55:55;;;;;;;7.82;2.22;;;25.50;61.50;;;;;;6207107;23;20493;-73
2022/05/16 10:58:35;;;;;;;10.90;2.60;;;25.60;61.90;;;;;;6183953;23;20095;-77
2022/05/16 11:01:11;;;;;;;8.05;2.35;;;25.70;62.00;;;;;;6207207;23;20013;-74
2022/05/16 11:03:46;;;;;;;9.07;2.35;;;25.80;61.90;;;;;;6182475;23;20028;-76
2022/05/16 11:06:33;;;;;;;6.90;2.30;;;25.90;63.10;;;;;;6157886;23;20091;-75
2022/05/16 11:09:08;;;;;;;8.23;2.53;;;26.00;61.60;;;;;;6183695;23;20096;-76
2022/05/16 11:11:41;;;;;;;10.13;2.60;;;26.10;62.60;;;;;;6157424;23;20332;-74
2022/05/16 11:14:31;;;;;;;8.68;2.20;;;26.20;61.00;;;;;;6159103;23;20017;-71
2022/05/16 11:17:24;;;;;;;6.93;2.45;;;26.40;60.50;;;;;;6158175;23;20520;-72
2022/05/16 11:20:01;;;;;;;10.18;2.45;;;26.40;60.10;;;;;;6155878;23;20423;-75
2022/05/16 11:22:44;;;;;;;7.65;2.40;;;26.30;61.50;;;;;;6288456;22;20019;-75
2022/05/16 11:25:20;;;;;;;10.40;2.40;;;26.30;60.50;;;;;;6301938;22;20461;-75
2022/05/16 11:28:00;;;;;;;11.85;2.40;;;26.20;61.60;;;;;;6276528;22;20305;-74
2022/05/16 11:30:51;;;;;;;10.73;2.28;;;26.30;61.10;;;;;;6301005;22;20042;-73
2022/05/16 11:33:38;;;;;;;9.57;2.97;;;26.30;62.60;;;;;;6300172;22;20050;-75
2022/05/16 11:36:29;;;;;;;6.90;2.30;;;26.30;62.00;;;;;;6304918;22;20015;-74
2022/05/16 11:39:37;;;;;;;6.45;2.35;;;26.30;59.80;;;;;;6304480;22;20022;-75
2022/05/16 11:42:18;;;;;;;9.57;2.05;;;26.50;61.40;;;;;;6277260;22;20096;-78
2022/05/16 11:44:44;;;;;;;7.70;2.40;;;26.90;61.80;;;;;;6277908;22;20022;-76
2022/05/16 11:47:22;;;;;;;7.45;2.10;;;27.10;61.80;;;;;;6303406;22;20449;-73
2022/05/16 11:50:12;;;;;;;6.47;2.45;;;27.40;61.60;;;;;;6302908;22;20349;-77
2022/05/16 11:52:48;;;;;;;9.20;2.30;;;27.40;59.20;;;;;;6301213;22;20019;-76
2022/05/16 12:01:04;;;;;;;10.32;2.33;;;27.20;59.40;;;;;;6304809;22;20019;-76
2022/05/16 12:03:38;;;;;;;9.10;2.10;;;27.20;59.80;;;;;;6303658;22;20019;-77
2022/05/16 12:06:31;;;;;;;4.88;2.20;;;27.10;60.20;;;;;;6305769;22;20019;-77
2022/05/16 12:09:17;;;;;;;6.53;2.40;;;26.90;58.10;;;;;;6303602;22;20098;-75
2022/05/16 12:11:51;;;;;;;7.70;2.28;;;26.70;58.30;;;;;;6302870;22;20676;-77
2022/05/16 12:14:34;;;;;;;13.60;2.88;;;26.60;59.40;;;;;;6304632;22;20452;-74
2022/05/16 12:17:18;;;;;;;11.18;3.00;;;26.60;60.40;;;;;;6305301;22;20379;-75
2022/05/16 12:19:50;;;;;;;7.78;2.75;;;26.60;60.70;;;;;;6276967;22;20489;-75
2022/05/16 12:22:32;;;;;;;7.75;2.28;;;26.40;59.90;;;;;;6302633;22;20019;-77
2022/05/16 12:25:09;;;;;;;9.45;2.38;;;26.30;60.80;;;;;;6303450;22;20480;-73
2022/05/16 12:27:41;;;;;;;7.47;2.60;;;26.10;60.80;;;;;;6304592;22;20015;-74
2022/05/16 12:30:28;;;;;;;13.70;2.50;;;26.10;60.20;;;;;;6304376;22;20667;-79
2022/05/16 12:32:56;;;;;;;11.65;2.63;;;25.90;61.20;;;;;;6303526;22;20027;-76
2022/05/16 12:35:27;;;;;;;7.80;2.58;;;25.80;61.30;;;;;;6302572;22;20562;-73
2022/05/16 12:37:54;;;;;;;;;;;25.70;62.40;;;;;;6302382;22;20601;-72
2022/05/16 12:40:46;;;;;;;12.88;2.65;;;25.50;63.10;;;;;;6277993;22;20240;-78
2022/05/16 12:43:30;;;;;;;;;;;25.40;64.90;;;;;;6184453;23;20020;-75
2022/05/16 12:46:11;;;;;;;;;;;25.30;66.10;;;;;;6185509;23;20043;-78
2022/05/16 12:48:55;;;;;;;;;;;25.20;67.00;;;;;;6184060;23;20321;-74
2022/05/16 12:51:39;;;;;;;;;;;25.00;69.30;;;;;;6208788;23;19931;-73
2022/05/16 12:54:04;;;;;;;;;;;24.90;68.50;;;;;;6185387;23;20425;-73
2022/05/16 12:56:42;;;;;;;;;;;24.80;73.60;;;;;;6185395;23;19922;-74
2022/05/16 12:59:10;;;;;;;;;;;24.70;73.80;;;;;;6211896;23;20057;-79
2022/05/16 13:01:40;;;;;;;;;;;24.60;73.50;;;;;;6209122;23;19915;-72
2022/05/16 13:04:09;;;;;;;;;;;24.50;76.20;;;;;;6211543;23;20440;-83
2022/05/16 13:06:46;;;;;;;;;;;24.50;78.20;;;;;;6204467;23;19924;-75
2022/05/16 13:09:38;;;;;;;;;;;24.40;79.50;;;;;;6210389;23;19920;-77
2022/05/16 13:12:04;;;;;;;;;;;24.50;80.40;;;;;;6182812;23;19962;-77
2022/05/16 13:14:48;;;;;;;;;;;24.50;80.70;;;;;;6209494;23;19920;-73
2022/05/16 13:17:28;;;;;;;;;;;24.40;80.80;;;;;;6210282;23;20388;-74
2022/05/16 13:19:54;;;;;;;;;;;24.60;79.50;;;;;;6246857;22;20306;-81
2022/05/16 13:22:21;;;;;;;;;;;24.60;80.50;;;;;;6301903;22;19990;-81
2022/05/16 13:24:51;;;;;;;;;;;24.70;81.60;;;;;;6303582;22;20214;-81
2022/05/16 13:30:05;;;;;;;;;;;24.90;88.10;;;;;;6304605;22;19974;-78
2022/05/16 13:32:30;;;;;;;;;;;24.90;88.80;;;;;;6302464;22;19914;-74
2022/05/16 13:34:58;;;;;;;;;;;24.90;87.30;;;;;;6305206;22;19914;-81
2022/05/16 13:37:27;;;;;;;;;;;24.90;89.00;;;;;;6304462;22;19915;-79
2022/05/16 13:40:03;;;;;;;;;;;24.90;88.30;;;;;;6302789;22;19979;-76
2022/05/16 13:42:32;;;;;;;;;;;24.90;86.50;;;;;;6302659;22;19961;-74
2022/05/16 13:44:58;;;;;;;;;;;24.80;86.80;;;;;;6305862;22;20236;-77
2022/05/16 13:47:26;;;;;;;;;;;24.80;86.60;;;;;;6305711;22;19922;-75
2022/05/16 13:49:51;;;;;;;;;;;24.70;85.30;;;;;;6304792;22;19960;-77
2022/05/16 13:52:17;;;;;;;;;;;24.60;86.60;;;;;;6302271;22;20255;-82
2022/05/16 13:54:42;;;;;;;;;;;24.60;86.30;;;;;;6303029;22;20001;-76